Maxwell Air Force Base

Airport
ICAO code: 
KMXF
Summary
ICAO Region: 
NAM
Territory: 
Location: 
Montgomery, Alabama,
Coordinates: 
Aerial View: 
32° 22' 44.959" N, 86° 21' 45.177" W
Metar
Observation
KMXF 040756Z AUTO 00000KT 9SM CLR 09/09 A3007 RMK AO2 SLP185 T00930090
Station
Maxwell Air Force Base / Montgomery
Date/Time
2021-12-04 07:56:00
Wind direction
Wind speed
00 kts
Lowest cloud amount
n/a
Temperature
9.3°C
Dew point
9°C
Humidity
97%
Weather condition
n/a

Description

Maxwell Air Force Base, officially known as Maxwell-Gunter Air Force Base, is a United States Air Force (USAF) installation located in Montgomery, Alabama,.

Climatology

Humid “subtropical” climate (Köppen climate classification Cfa) - characterized by hot, humid summers and cool winters. Significant amounts of precipitation occur in all seasons in most areas. Winter rainfall (and sometimes snowfall) is associated with large storms that the westerlies steer from west to east. Most summer rainfall occurs during thunderstorms and occasional tropical storms (hurricanes).

Runways

Designator Length Width Surface Rops
7/187 919 18 ASPH No/No
15/33 2442 46 ASP Yes/Yes
Airport map: 
Aerial View: 

SKYbrary Partners:

Safety knowledge contributed by: